Time;durP1;ratioP1;P1;durP2;ratioP2;P2;SDS_P1;SDS_P2;PMS_P1;PMS_P2;Temp;Humidity;BMP_temperature;BMP_pressure;BME280_temperature;BME280_humidity;BME280_pressure;Samples;Min_cycle;Max_cycle;Signal;HPM_P1;HPM_P2
2024/01/24 00:01:35;;;;;;;7.95;2.60;;;10.10;99.90;;;;;;4962143;28;20045;-74
2024/01/24 00:04:01;;;;;;;8.27;1.65;;;10.10;99.90;;;;;;4966009;28;20137;-75
2024/01/24 00:06:26;;;;;;;5.45;2.13;;;10.10;99.90;;;;;;4966459;28;20583;-75
2024/01/24 00:08:53;;;;;;;9.40;3.08;;;10.10;99.90;;;;;;4956807;28;20086;-75
2024/01/24 00:11:18;;;;;;;13.80;2.05;;;10.10;99.90;;;;;;4956061;28;20583;-74
2024/01/24 00:13:44;;;;;;;8.65;1.92;;;10.10;99.90;;;;;;4969372;28;20089;-74
2024/01/24 00:16:09;;;;;;;5.88;2.33;;;10.10;99.90;;;;;;4962848;28;20634;-74
2024/01/24 00:18:35;;;;;;;13.20;2.95;;;10.20;99.90;;;;;;4978029;28;20780;-75
2024/01/24 00:21:01;;;;;;;4.85;1.35;;;10.10;99.90;;;;;;4969231;28;20046;-75
2024/01/24 00:23:27;;;;;;;13.00;3.10;;;10.10;99.90;;;;;;4959065;28;20130;-75
2024/01/24 00:25:52;;;;;;;12.82;2.85;;;10.10;99.90;;;;;;4994767;28;20137;-75
2024/01/24 00:28:18;;;;;;;12.02;2.20;;;10.10;99.90;;;;;;4977727;28;20445;-75
2024/01/24 00:30:44;;;;;;;6.32;1.73;;;10.20;99.90;;;;;;4964151;28;20053;-75
2024/01/24 00:33:10;;;;;;;6.43;1.48;;;10.10;99.90;;;;;;4978265;28;20050;-75
2024/01/24 00:35:36;;;;;;;9.75;3.90;;;10.20;99.90;;;;;;4965762;28;20117;-75
2024/01/24 00:38:01;;;;;;;9.98;2.20;;;10.10;99.90;;;;;;4976463;28;20134;-74
2024/01/24 00:40:27;;;;;;;8.30;2.00;;;10.20;99.90;;;;;;4977372;28;20396;-75
2024/01/24 00:42:52;;;;;;;5.47;1.70;;;10.20;99.90;;;;;;4984428;28;20047;-75
2024/01/24 00:45:18;;;;;;;27.92;3.45;;;10.20;99.90;;;;;;4983560;28;20042;-75
2024/01/24 00:47:44;;;;;;;4.47;2.25;;;10.20;99.90;;;;;;4976463;28;20050;-75
2024/01/24 00:50:10;;;;;;;5.95;1.67;;;10.20;99.90;;;;;;4963184;28;20051;-75
2024/01/24 00:52:35;;;;;;;19.50;3.00;;;10.20;99.90;;;;;;4978726;28;20061;-75
2024/01/24 00:55:01;;;;;;;6.82;1.85;;;10.10;99.90;;;;;;4979301;28;20544;-74
2024/01/24 00:57:27;;;;;;;6.90;1.48;;;10.20;99.90;;;;;;4965224;28;20556;-75
2024/01/24 00:59:52;;;;;;;7.82;2.28;;;10.20;99.90;;;;;;4964947;28;20039;-74
2024/01/24 01:02:18;;;;;;;7.68;2.83;;;10.20;99.90;;;;;;4981443;28;20074;-74
2024/01/24 01:04:43;;;;;;;4.35;1.60;;;10.20;99.90;;;;;;4965497;28;20585;-74
2024/01/24 01:07:10;;;;;;;8.10;1.60;;;10.20;99.90;;;;;;4985676;28;20050;-75
2024/01/24 01:09:38;;;;;;;3.08;1.77;;;10.20;99.90;;;;;;4982922;28;20050;-75
2024/01/24 01:12:04;;;;;;;7.97;1.70;;;10.20;99.90;;;;;;4934767;28;20154;-74
2024/01/24 01:14:30;;;;;;;7.07;1.77;;;10.30;99.90;;;;;;4907724;29;20135;-74
2024/01/24 01:16:55;;;;;;;6.55;1.60;;;10.30;99.90;;;;;;4923836;29;20058;-75
2024/01/24 01:19:21;;;;;;;14.50;3.28;;;10.30;99.90;;;;;;4924610;29;20048;-75
2024/01/24 01:21:47;;;;;;;7.70;1.95;;;10.30;99.90;;;;;;4939000;29;20047;-74
2024/01/24 01:24:12;;;;;;;5.45;2.00;;;10.40;99.90;;;;;;4942098;29;20095;-74
2024/01/24 01:26:38;;;;;;;9.27;1.98;;;10.40;99.90;;;;;;4931315;29;20095;-75
2024/01/24 01:29:04;;;;;;;6.00;1.50;;;10.40;99.90;;;;;;4958473;28;20071;-75
2024/01/24 01:31:30;;;;;;;6.22;1.20;;;10.50;99.90;;;;;;4929568;29;20048;-74
2024/01/24 01:33:55;;;;;;;8.68;1.85;;;10.50;99.90;;;;;;4923188;29;20058;-75
2024/01/24 01:36:21;;;;;;;6.85;2.80;;;10.50;99.90;;;;;;4924911;29;20062;-75
2024/01/24 01:38:47;;;;;;;6.50;1.55;;;10.60;99.90;;;;;;4934603;29;20134;-75
2024/01/24 01:41:12;;;;;;;5.55;2.15;;;10.50;99.90;;;;;;4923461;29;20056;-75
2024/01/24 01:43:38;;;;;;;7.72;1.38;;;10.60;99.90;;;;;;4953369;28;20617;-75
2024/01/24 01:46:09;;;;;;;3.85;1.65;;;10.60;99.90;;;;;;4943455;28;20047;-75
2024/01/24 01:48:34;;;;;;;6.82;1.73;;;10.60;99.90;;;;;;4943320;29;20868;-75
2024/01/24 01:51:01;;;;;;;3.80;1.58;;;10.50;99.90;;;;;;4943072;28;20047;-75
2024/01/24 01:53:26;;;;;;;3.35;1.25;;;10.50;99.90;;;;;;4942539;29;20051;-74
2024/01/24 01:55:53;;;;;;;3.25;1.70;;;10.50;99.90;;;;;;4928730;28;20044;-75
2024/01/24 01:58:19;;;;;;;3.47;1.98;;;10.60;99.90;;;;;;4925072;29;20058;-75
2024/01/24 02:00:48;;;;;;;6.32;1.50;;;10.60;99.90;;;;;;4933272;29;20127;-75
2024/01/24 02:03:13;;;;;;;2.30;1.70;;;10.50;99.90;;;;;;4942264;29;20063;-75
2024/01/24 02:05:39;;;;;;;6.50;2.25;;;10.60;99.90;;;;;;4936230;29;20349;-75
2024/01/24 02:08:06;;;;;;;3.30;0.65;;;10.50;99.90;;;;;;4941582;29;20046;-75
2024/01/24 02:10:32;;;;;;;7.68;1.75;;;10.60;99.90;;;;;;4947422;28;20051;-75
2024/01/24 02:12:59;;;;;;;9.85;2.22;;;10.50;99.90;;;;;;4981691;28;20050;-74
2024/01/24 02:15:26;;;;;;;6.63;2.05;;;10.50;99.90;;;;;;4967638;28;20145;-75
2024/01/24 02:17:52;;;;;;;7.30;1.83;;;10.50;99.90;;;;;;4980748;28;20042;-74
2024/01/24 02:20:18;;;;;;;11.18;1.60;;;10.50;99.90;;;;;;4956757;28;20505;-75
2024/01/24 02:22:44;;;;;;;3.17;1.85;;;10.50;99.90;;;;;;4971985;28;20042;-74
2024/01/24 02:25:09;;;;;;;9.48;2.08;;;10.50;99.90;;;;;;4979215;28;20047;-75
2024/01/24 02:27:35;;;;;;;4.80;1.25;;;10.50;99.90;;;;;;4965670;28;20054;-76
2024/01/24 02:30:00;;;;;;;6.30;1.33;;;10.50;99.90;;;;;;4962735;28;20347;-75
2024/01/24 02:32:26;;;;;;;5.38;1.33;;;10.50;99.90;;;;;;4967001;28;20190;-75
2024/01/24 02:34:52;;;;;;;8.15;2.03;;;10.40;99.90;;;;;;4954191;28;20049;-74
2024/01/24 02:37:20;;;;;;;9.30;2.45;;;10.40;99.90;;;;;;4962549;28;20043;-75
2024/01/24 02:39:47;;;;;;;7.25;2.35;;;10.40;99.90;;;;;;4983406;28;20406;-75
2024/01/24 02:42:13;;;;;;;4.18;1.08;;;10.30;99.90;;;;;;4950044;28;20146;-74
2024/01/24 02:44:39;;;;;;;3.67;1.70;;;10.30;99.90;;;;;;4947365;28;20053;-75
2024/01/24 02:47:04;;;;;;;6.40;2.17;;;10.30;99.90;;;;;;4974205;28;20038;-74
2024/01/24 02:49:30;;;;;;;4.72;1.30;;;10.30;99.90;;;;;;4973016;28;20043;-74
2024/01/24 02:51:56;;;;;;;5.75;2.63;;;10.30;99.90;;;;;;4961751;28;20093;-75
2024/01/24 02:54:22;;;;;;;8.25;2.53;;;10.20;99.90;;;;;;4983630;28;20043;-74
2024/01/24 02:56:48;;;;;;;10.18;2.60;;;10.20;99.90;;;;;;4981399;28;20073;-75
2024/01/24 02:59:13;;;;;;;6.85;1.88;;;10.20;99.90;;;;;;4965832;28;20084;-75
2024/01/24 03:01:40;;;;;;;5.38;1.70;;;10.20;99.90;;;;;;4950397;28;20062;-75
2024/01/24 03:04:07;;;;;;;2.90;1.50;;;10.10;99.90;;;;;;4965511;28;20046;-75
2024/01/24 03:06:33;;;;;;;4.97;2.08;;;10.10;99.90;;;;;;4941995;28;20058;-75
2024/01/24 03:08:59;;;;;;;3.83;2.33;;;10.10;99.90;;;;;;4995014;28;20042;-74
2024/01/24 03:11:25;;;;;;;8.85;1.80;;;10.10;99.90;;;;;;4966490;28;20054;-75
2024/01/24 03:13:51;;;;;;;8.65;2.47;;;10.10;99.90;;;;;;4947704;28;20137;-75
2024/01/24 03:16:17;;;;;;;7.15;1.33;;;10.10;99.90;;;;;;4965383;28;20146;-75
2024/01/24 03:18:43;;;;;;;4.78;1.15;;;10.00;99.90;;;;;;4972388;28;20042;-75
2024/01/24 03:21:14;;;;;;;7.65;2.47;;;10.00;99.90;;;;;;4949862;28;20109;-74
2024/01/24 03:23:40;;;;;;;5.70;1.10;;;10.00;99.90;;;;;;4953885;28;20402;-75
2024/01/24 03:26:09;;;;;;;5.95;1.90;;;10.00;99.90;;;;;;4944865;28;20043;-75
2024/01/24 03:28:35;;;;;;;12.13;3.17;;;10.10;99.90;;;;;;4975975;28;20114;-74
2024/01/24 03:31:01;;;;;;;7.43;2.42;;;10.00;99.90;;;;;;4965243;28;20544;-75
2024/01/24 03:33:27;;;;;;;8.00;2.00;;;10.00;99.90;;;;;;4964860;28;20536;-75
2024/01/24 03:35:52;;;;;;;4.47;1.58;;;10.00;99.90;;;;;;4997279;28;20101;-75
2024/01/24 03:38:19;;;;;;;4.30;1.58;;;10.00;99.90;;;;;;4973521;28;20069;-75
2024/01/24 03:40:45;;;;;;;12.18;3.10;;;10.10;99.90;;;;;;4947021;28;20046;-75
2024/01/24 03:43:11;;;;;;;11.35;1.98;;;10.10;99.90;;;;;;4963387;28;20328;-74
2024/01/24 03:45:39;;;;;;;6.78;2.20;;;10.10;99.90;;;;;;4963601;28;20039;-74
2024/01/24 03:48:06;;;;;;;6.65;2.53;;;10.10;99.90;;;;;;4970621;28;20117;-75
2024/01/24 03:50:32;;;;;;;5.65;1.73;;;10.10;99.90;;;;;;4960751;28;20501;-75
2024/01/24 03:53:00;;;;;;;8.00;2.95;;;10.10;99.90;;;;;;4972263;28;20570;-74
2024/01/24 03:55:25;;;;;;;7.95;2.28;;;10.10;99.90;;;;;;4963455;28;20517;-75
2024/01/24 03:57:51;;;;;;;6.57;1.92;;;10.10;99.90;;;;;;4960961;28;20134;-75
2024/01/24 04:00:17;;;;;;;6.25;2.50;;;10.10;99.90;;;;;;4991229;28;20053;-74
2024/01/24 04:02:42;;;;;;;4.38;2.20;;;10.10;99.90;;;;;;4978881;28;20053;-74
2024/01/24 04:05:10;;;;;;;11.18;2.38;;;10.00;99.90;;;;;;4948417;28;20062;-75
2024/01/24 04:07:36;;;;;;;5.63;3.17;;;10.00;99.90;;;;;;4957532;28;20049;-74
2024/01/24 04:10:03;;;;;;;8.82;2.13;;;10.00;99.90;;;;;;4947831;28;20042;-74
2024/01/24 04:12:29;;;;;;;14.50;3.88;;;10.00;99.90;;;;;;4947910;28;20061;-74
2024/01/24 04:14:55;;;;;;;6.70;1.58;;;9.90;99.90;;;;;;4950970;28;20424;-74
2024/01/24 04:17:21;;;;;;;5.50;1.88;;;9.90;99.90;;;;;;4964267;28;20057;-74
2024/01/24 04:19:46;;;;;;;7.57;3.03;;;9.80;99.90;;;;;;4962973;28;20249;-74
2024/01/24 04:22:12;;;;;;;8.73;3.05;;;9.80;99.90;;;;;;4994945;28;20591;-74
2024/01/24 04:24:37;;;;;;;6.40;2.83;;;9.70;99.90;;;;;;4957238;28;20053;-74
2024/01/24 04:27:03;;;;;;;7.45;3.25;;;9.70;99.90;;;;;;4944982;28;20046;-74
2024/01/24 04:29:29;;;;;;;11.18;2.80;;;9.70;99.90;;;;;;4976813;28;20054;-74
2024/01/24 04:31:54;;;;;;;16.40;2.13;;;9.70;99.90;;;;;;4981540;28;20046;-74
2024/01/24 04:34:20;;;;;;;6.85;3.42;;;9.60;99.90;;;;;;4996986;28;20588;-75
2024/01/24 04:36:45;;;;;;;8.68;2.33;;;9.60;99.90;;;;;;4947962;28;20046;-75
2024/01/24 04:39:11;;;;;;;10.05;3.42;;;9.60;99.90;;;;;;4995249;28;20078;-75
2024/01/24 04:41:37;;;;;;;6.15;2.40;;;9.60;99.90;;;;;;4984940;28;20077;-74
2024/01/24 04:44:03;;;;;;;9.00;1.73;;;9.50;99.90;;;;;;4996543;28;20129;-74
2024/01/24 04:46:29;;;;;;;11.18;3.38;;;9.50;99.90;;;;;;4986193;28;20058;-74
2024/01/24 04:48:54;;;;;;;17.95;3.55;;;9.50;99.90;;;;;;4972967;28;20035;-75
2024/01/24 04:51:21;;;;;;;20.35;4.18;;;9.50;99.90;;;;;;4962021;28;20493;-75
2024/01/24 04:53:47;;;;;;;12.05;3.00;;;9.50;99.90;;;;;;4975039;28;20568;-74
2024/01/24 04:56:14;;;;;;;21.45;5.30;;;9.60;99.90;;;;;;4963022;28;20307;-74
2024/01/24 04:58:42;;;;;;;18.05;3.95;;;9.50;99.90;;;;;;4940075;28;20039;-74
2024/01/24 05:01:08;;;;;;;13.13;3.95;;;9.50;99.90;;;;;;4963897;28;20038;-74
2024/01/24 05:03:33;;;;;;;15.20;3.55;;;9.50;99.90;;;;;;4959219;28;20080;-74
2024/01/24 05:06:00;;;;;;;17.60;5.00;;;9.50;99.90;;;;;;4985793;28;20054;-75
2024/01/24 05:08:25;;;;;;;13.05;3.28;;;9.50;99.90;;;;;;4964159;28;20552;-75
2024/01/24 05:10:51;;;;;;;9.50;3.03;;;9.50;99.90;;;;;;4962096;28;20060;-75
2024/01/24 05:13:18;;;;;;;23.67;3.95;;;9.50;99.90;;;;;;4957795;28;20564;-74
2024/01/24 05:15:43;;;;;;;6.18;3.20;;;9.50;99.90;;;;;;4976379;28;20371;-74
2024/01/24 05:18:09;;;;;;;10.75;3.83;;;9.50;99.90;;;;;;4968214;28;20528;-75
2024/01/24 05:20:35;;;;;;;6.75;3.25;;;9.50;99.90;;;;;;4976728;28;20117;-76
2024/01/24 05:23:03;;;;;;;12.50;4.35;;;9.40;99.90;;;;;;4982805;28;20137;-75
2024/01/24 05:25:32;;;;;;;11.43;3.85;;;9.40;99.90;;;;;;4976944;28;20084;-75
2024/01/24 05:27:58;;;;;;;6.85;3.03;;;9.40;99.90;;;;;;4980471;28;20058;-75
2024/01/24 05:30:25;;;;;;;10.57;3.70;;;9.40;99.90;;;;;;4994684;28;20121;-74
2024/01/24 05:32:51;;;;;;;17.38;5.00;;;9.30;99.90;;;;;;4978951;28;20137;-75
2024/01/24 05:35:16;;;;;;;16.35;5.80;;;9.30;99.90;;;;;;4956141;28;20042;-74
2024/01/24 05:37:42;;;;;;;17.48;4.07;;;9.30;99.90;;;;;;4988244;28;20038;-75
2024/01/24 05:40:08;;;;;;;15.63;4.28;;;9.20;99.90;;;;;;4964483;28;20126;-74
2024/01/24 05:42:34;;;;;;;14.40;5.10;;;9.20;99.90;;;;;;4958291;28;20034;-74
2024/01/24 05:45:00;;;;;;;18.52;4.93;;;9.20;99.90;;;;;;4963454;28;20076;-74
2024/01/24 05:47:25;;;;;;;24.40;4.70;;;9.20;99.90;;;;;;4964776;28;20793;-74
2024/01/24 05:49:51;;;;;;;19.02;3.45;;;9.20;99.90;;;;;;4967140;28;20065;-75
2024/01/24 05:52:16;;;;;;;11.70;3.42;;;9.10;99.90;;;;;;4968187;28;20050;-75
2024/01/24 05:54:42;;;;;;;8.82;3.63;;;9.10;99.90;;;;;;4967267;28;20054;-75
2024/01/24 05:57:08;;;;;;;15.00;4.47;;;9.10;99.90;;;;;;4998829;28;20525;-74
2024/01/24 05:59:33;;;;;;;10.20;4.35;;;9.10;99.90;;;;;;4999351;28;20057;-75
2024/01/24 06:01:59;;;;;;;10.27;4.63;;;9.10;99.90;;;;;;4974611;28;20042;-74
2024/01/24 06:04:24;;;;;;;9.35;3.63;;;9.10;99.90;;;;;;4983566;28;20424;-74
2024/01/24 06:06:50;;;;;;;16.63;4.55;;;9.00;99.90;;;;;;4983622;28;20034;-75
2024/01/24 06:09:18;;;;;;;21.02;3.33;;;9.00;99.90;;;;;;4984780;28;20042;-75
2024/01/24 06:11:45;;;;;;;14.65;5.05;;;9.00;99.90;;;;;;4966423;28;20086;-75
2024/01/24 06:14:11;;;;;;;8.93;4.80;;;9.00;99.90;;;;;;4954897;28;20525;-75
2024/01/24 06:16:36;;;;;;;20.80;3.75;;;8.90;99.90;;;;;;4994304;28;20434;-75
2024/01/24 06:19:02;;;;;;;7.55;3.47;;;8.90;99.90;;;;;;4983273;28;20066;-74
2024/01/24 06:21:28;;;;;;;12.85;3.17;;;8.90;99.90;;;;;;4959861;28;20065;-74
2024/01/24 06:23:53;;;;;;;8.85;4.45;;;8.80;99.90;;;;;;4999161;28;20100;-74
2024/01/24 06:26:19;;;;;;;13.68;3.70;;;8.80;99.90;;;;;;4975450;28;20513;-75
2024/01/24 06:28:44;;;;;;;13.50;5.07;;;8.80;99.90;;;;;;4978900;28;20140;-74
2024/01/24 06:31:10;;;;;;;8.27;3.25;;;8.80;99.90;;;;;;4972642;28;20051;-75
2024/01/24 06:33:36;;;;;;;9.75;3.85;;;8.70;99.90;;;;;;4998138;28;20053;-74
2024/01/24 06:36:01;;;;;;;11.65;3.53;;;8.80;99.90;;;;;;4958065;28;20039;-75
2024/01/24 06:38:27;;;;;;;11.38;3.13;;;8.80;99.90;;;;;;4971361;28;20366;-76
2024/01/24 06:40:52;;;;;;;14.73;4.82;;;8.80;99.90;;;;;;4958148;28;20734;-76
2024/01/24 06:43:20;;;;;;;12.73;4.45;;;8.80;99.90;;;;;;4993614;28;20050;-76
2024/01/24 06:45:47;;;;;;;16.33;4.45;;;8.70;99.90;;;;;;4993941;28;20050;-78
2024/01/24 06:48:12;;;;;;;28.98;4.95;;;8.70;99.90;;;;;;4962344;28;20082;-77
2024/01/24 06:50:38;;;;;;;11.80;4.47;;;8.70;99.90;;;;;;4982741;28;20104;-76
2024/01/24 06:53:05;;;;;;;11.65;3.95;;;8.70;99.90;;;;;;4949195;28;20108;-78
2024/01/24 06:55:31;;;;;;;12.15;4.00;;;8.70;99.90;;;;;;4983572;28;20056;-78
2024/01/24 06:57:57;;;;;;;16.80;4.13;;;8.70;99.90;;;;;;4982901;28;20038;-78
2024/01/24 07:00:23;;;;;;;13.52;4.40;;;8.70;99.90;;;;;;4980108;28;20485;-78
2024/01/24 07:02:48;;;;;;;13.52;5.78;;;8.70;99.90;;;;;;4986087;28;20089;-76
2024/01/24 07:05:14;;;;;;;7.38;4.20;;;8.60;99.90;;;;;;4984174;28;20053;-78
2024/01/24 07:07:40;;;;;;;13.05;4.35;;;8.70;99.90;;;;;;4964303;28;20068;-80
2024/01/24 07:10:10;;;;;;;13.55;4.95;;;8.60;99.90;;;;;;4966454;28;20065;-80
2024/01/24 07:12:39;;;;;;;19.35;4.20;;;8.60;99.90;;;;;;4966802;28;20046;-80
2024/01/24 07:15:05;;;;;;;12.80;3.88;;;8.60;99.90;;;;;;4983944;28;20113;-79
2024/01/24 07:17:31;;;;;;;29.15;3.42;;;8.60;99.90;;;;;;4968059;28;20490;-81
2024/01/24 07:19:56;;;;;;;13.02;3.83;;;8.60;99.90;;;;;;4982665;28;20138;-80
2024/01/24 07:22:22;;;;;;;14.00;4.40;;;8.60;99.90;;;;;;4966860;28;20057;-79
2024/01/24 07:24:47;;;;;;;5.30;3.75;;;8.50;99.90;;;;;;4967263;28;20101;-81
2024/01/24 07:27:13;;;;;;;10.65;3.90;;;8.50;99.90;;;;;;4969990;28;20049;-81
2024/01/24 07:29:38;;;;;;;7.95;3.47;;;8.50;99.90;;;;;;4964917;28;20533;-79
2024/01/24 07:32:04;;;;;;;6.70;2.95;;;8.60;99.90;;;;;;4963604;28;20548;-83
2024/01/24 07:34:30;;;;;;;14.52;3.53;;;8.60;99.90;;;;;;4950478;28;20130;-79
2024/01/24 07:36:55;;;;;;;16.35;4.82;;;8.60;99.90;;;;;;4964576;28;20486;-78
2024/01/24 07:39:21;;;;;;;9.38;3.70;;;8.50;99.90;;;;;;4990773;28;20042;-80
2024/01/24 07:41:47;;;;;;;14.18;3.97;;;8.50;99.90;;;;;;4978787;28;20034;-79
2024/01/24 07:44:12;;;;;;;13.15;3.05;;;8.50;99.90;;;;;;4980733;28;20047;-78
2024/01/24 07:46:42;;;;;;;12.15;3.50;;;8.50;99.90;;;;;;4961534;28;20050;-77
2024/01/24 07:49:08;;;;;;;11.00;3.72;;;8.50;99.90;;;;;;4979848;28;20038;-79
2024/01/24 07:51:34;;;;;;;10.60;4.55;;;8.50;99.90;;;;;;4975911;28;20042;-75
2024/01/24 07:53:59;;;;;;;6.38;3.47;;;8.50;99.90;;;;;;4977544;28;20043;-76
2024/01/24 07:56:25;;;;;;;14.55;4.60;;;8.50;99.90;;;;;;4978166;28;20042;-78
2024/01/24 07:58:51;;;;;;;9.95;4.78;;;8.40;99.90;;;;;;4959728;28;20074;-79
2024/01/24 08:01:17;;;;;;;10.00;4.85;;;8.40;99.90;;;;;;4984464;28;20038;-76
2024/01/24 08:03:42;;;;;;;25.77;4.45;;;8.40;99.90;;;;;;4980809;28;20096;-77
2024/01/24 08:06:08;;;;;;;13.25;4.55;;;8.40;99.90;;;;;;4963992;28;20137;-78
2024/01/24 08:08:34;;;;;;;9.65;3.22;;;8.40;99.90;;;;;;4982943;28;20042;-79
2024/01/24 08:11:00;;;;;;;16.23;5.07;;;8.50;99.90;;;;;;4994206;28;20046;-79
2024/01/24 08:13:26;;;;;;;18.80;4.72;;;8.40;99.90;;;;;;4980290;28;20054;-79
2024/01/24 08:15:51;;;;;;;16.02;5.13;;;8.40;99.90;;;;;;4979551;28;20046;-77
2024/01/24 08:18:17;;;;;;;22.55;4.40;;;8.40;99.90;;;;;;4982392;28;20046;-77
2024/01/24 08:20:42;;;;;;;5.53;4.07;;;8.40;99.90;;;;;;4980681;28;20507;-79
2024/01/24 08:23:08;;;;;;;26.70;3.83;;;8.40;99.90;;;;;;4964196;28;20065;-79
2024/01/24 08:25:33;;;;;;;10.13;4.40;;;8.40;99.90;;;;;;4980981;28;20041;-78
2024/01/24 08:27:59;;;;;;;10.10;3.28;;;8.40;99.90;;;;;;4981107;28;20144;-77
2024/01/24 08:30:24;;;;;;;8.15;4.45;;;8.40;99.90;;;;;;4980513;28;20112;-77
2024/01/24 08:32:51;;;;;;;9.82;4.00;;;8.40;99.90;;;;;;4980523;28;20053;-78
2024/01/24 08:35:17;;;;;;;20.58;5.32;;;8.50;99.90;;;;;;4982646;28;20035;-79
2024/01/24 08:37:43;;;;;;;12.70;3.92;;;8.50;99.90;;;;;;4962918;28;20710;-79
2024/01/24 08:40:10;;;;;;;14.40;4.90;;;8.50;99.90;;;;;;4979318;28;20479;-78
2024/01/24 08:42:36;;;;;;;9.77;3.92;;;8.50;99.90;;;;;;4997029;28;20041;-77
2024/01/24 08:45:01;;;;;;;17.45;3.75;;;8.50;99.90;;;;;;4981496;28;20102;-79
2024/01/24 08:47:27;;;;;;;11.23;3.15;;;8.50;99.90;;;;;;4963822;28;20432;-78
2024/01/24 08:49:53;;;;;;;14.02;4.40;;;8.50;99.90;;;;;;4980066;28;20503;-77
2024/01/24 08:52:19;;;;;;;15.95;4.07;;;8.50;99.90;;;;;;4981679;28;20047;-79
2024/01/24 08:54:45;;;;;;;18.55;4.07;;;8.50;99.90;;;;;;4978303;28;20101;-78
2024/01/24 08:57:10;;;;;;;15.52;5.38;;;8.60;99.90;;;;;;4981469;28;20046;-79
2024/01/24 08:59:39;;;;;;;5.97;4.50;;;8.60;99.90;;;;;;4964114;28;20380;-78
2024/01/24 09:02:07;;;;;;;6.70;4.05;;;8.60;99.90;;;;;;4980611;28;20042;-77
2024/01/24 09:04:32;;;;;;;12.88;4.65;;;8.60;99.90;;;;;;4996392;28;20058;-78
2024/01/24 09:06:58;;;;;;;10.00;4.15;;;8.60;99.90;;;;;;4963594;28;20515;-78
2024/01/24 09:09:25;;;;;;;12.88;3.50;;;8.60;99.90;;;;;;4980197;28;20121;-78
2024/01/24 09:11:51;;;;;;;13.70;3.67;;;8.60;99.90;;;;;;4962178;28;20436;-79
2024/01/24 09:14:16;;;;;;;30.70;4.68;;;8.60;99.90;;;;;;4981225;28;20043;-76
2024/01/24 09:16:42;;;;;;;7.97;4.05;;;8.60;99.90;;;;;;4980836;28;20075;-79
2024/01/24 09:19:08;;;;;;;9.10;3.92;;;8.60;99.90;;;;;;4963687;28;20650;-78
2024/01/24 09:21:33;;;;;;;24.73;5.97;;;8.60;99.90;;;;;;4978757;28;20045;-76
2024/01/24 09:23:59;;;;;;;11.60;4.43;;;8.60;99.90;;;;;;4981201;28;20069;-79
2024/01/24 09:26:24;;;;;;;12.52;3.58;;;8.60;99.90;;;;;;4978970;28;20076;-79
2024/01/24 09:28:50;;;;;;;8.77;2.88;;;8.70;99.90;;;;;;4979813;28;20046;-78
2024/01/24 09:31:15;;;;;;;11.10;3.30;;;8.70;99.90;;;;;;4978918;28;20073;-77
2024/01/24 09:33:41;;;;;;;11.82;3.88;;;8.70;99.90;;;;;;4979659;28;20057;-79
2024/01/24 09:36:07;;;;;;;10.40;4.40;;;8.70;99.90;;;;;;4979397;28;20042;-79
2024/01/24 09:38:32;;;;;;;19.98;6.20;;;8.70;99.90;;;;;;4958752;28;20080;-78
2024/01/24 09:41:01;;;;;;;10.15;2.75;;;8.70;99.90;;;;;;4959962;28;20118;-78
2024/01/24 09:43:32;;;;;;;15.65;3.40;;;8.70;99.90;;;;;;4944244;28;20405;-79
2024/01/24 09:46:02;;;;;;;20.05;3.40;;;8.80;99.90;;;;;;4974548;28;20118;-77
2024/01/24 09:48:29;;;;;;;12.52;4.35;;;8.80;99.90;;;;;;4963472;28;20049;-79
2024/01/24 09:50:55;;;;;;;10.60;4.15;;;8.80;99.90;;;;;;4980308;28;20489;-79
2024/01/24 09:53:22;;;;;;;6.95;2.85;;;8.80;99.90;;;;;;4963043;28;20073;-78
2024/01/24 09:55:49;;;;;;;19.02;5.70;;;8.80;99.90;;;;;;4979708;28;20100;-78
2024/01/24 09:58:14;;;;;;;8.15;3.03;;;8.90;99.90;;;;;;4963236;28;20143;-79
2024/01/24 10:00:41;;;;;;;9.25;3.63;;;8.90;99.90;;;;;;4981200;28;20512;-77
2024/01/24 10:03:07;;;;;;;11.65;3.65;;;8.90;99.90;;;;;;4962843;28;20081;-79
2024/01/24 10:05:35;;;;;;;17.80;4.35;;;8.90;99.90;;;;;;4980834;28;20287;-78
2024/01/24 10:08:01;;;;;;;8.10;3.13;;;8.90;99.90;;;;;;4979862;28;20039;-79
2024/01/24 10:10:26;;;;;;;13.40;4.75;;;9.00;99.90;;;;;;4970667;28;20050;-79
2024/01/24 10:12:52;;;;;;;14.75;3.20;;;9.00;99.90;;;;;;4975629;28;20054;-76
2024/01/24 10:15:17;;;;;;;14.75;3.20;;;8.90;99.90;;;;;;4976554;28;20725;-78
2024/01/24 10:17:44;;;;;;;16.02;4.32;;;9.00;99.90;;;;;;4944200;28;20054;-77
2024/01/24 10:20:11;;;;;;;12.45;4.38;;;9.00;99.90;;;;;;4943396;28;21119;-78
2024/01/24 10:22:39;;;;;;;14.73;3.63;;;9.00;99.90;;;;;;4960502;28;20054;-79
2024/01/24 10:25:05;;;;;;;12.25;3.22;;;9.00;99.90;;;;;;4966492;28;20378;-76
2024/01/24 10:27:32;;;;;;;13.02;3.75;;;9.00;99.90;;;;;;4980403;28;20074;-78
2024/01/24 10:29:59;;;;;;;8.80;2.97;;;9.00;99.90;;;;;;4962895;28;20129;-79
2024/01/24 10:32:24;;;;;;;23.90;5.28;;;9.00;99.90;;;;;;4979301;28;20050;-79
2024/01/24 10:34:50;;;;;;;8.30;3.10;;;9.00;99.90;;;;;;4965064;28;20677;-79
2024/01/24 10:37:18;;;;;;;9.10;3.30;;;9.00;99.90;;;;;;4982775;28;20038;-78
2024/01/24 10:39:44;;;;;;;10.20;2.78;;;9.00;99.90;;;;;;4965238;28;20084;-78
2024/01/24 10:42:12;;;;;;;16.58;3.40;;;9.00;99.90;;;;;;4980618;28;20054;-76
2024/01/24 10:44:38;;;;;;;10.18;2.53;;;9.00;99.90;;;;;;4982968;28;20069;-77
2024/01/24 10:47:05;;;;;;;9.75;2.85;;;9.00;99.90;;;;;;4982244;28;20074;-78
2024/01/24 10:49:31;;;;;;;11.35;3.55;;;9.00;99.90;;;;;;4966697;28;20075;-77
2024/01/24 10:51:57;;;;;;;8.75;3.90;;;9.00;99.90;;;;;;4966145;28;20521;-78
2024/01/24 10:54:23;;;;;;;8.88;2.95;;;9.00;99.90;;;;;;4964976;28;20057;-77
2024/01/24 10:56:50;;;;;;;13.65;2.67;;;9.00;99.90;;;;;;4982836;28;20049;-80
2024/01/24 10:59:17;;;;;;;12.68;4.22;;;9.10;99.90;;;;;;4984566;28;20076;-81
2024/01/24 11:01:43;;;;;;;15.77;3.55;;;9.10;99.90;;;;;;4969310;28;20050;-76
2024/01/24 11:04:10;;;;;;;15.07;4.65;;;9.10;99.90;;;;;;4998392;28;20262;-76
2024/01/24 11:06:46;;;;;;;9.60;3.63;;;9.10;99.90;;;;;;4966686;28;20072;-74
2024/01/24 11:09:34;;;;;;;7.90;3.85;;;9.10;99.90;;;;;;4997325;28;20170;-75
2024/01/24 11:12:00;;;;;;;10.30;3.80;;;9.10;99.90;;;;;;4978994;28;20054;-78
2024/01/24 11:14:33;;;;;;;9.30;2.50;;;9.10;99.90;;;;;;4961097;28;20058;-76
2024/01/24 11:17:00;;;;;;;15.05;4.03;;;9.10;99.90;;;;;;4933838;28;20077;-76
2024/01/24 11:19:28;;;;;;;11.20;3.00;;;9.10;99.90;;;;;;4980854;28;20038;-77
2024/01/24 11:21:56;;;;;;;16.92;3.38;;;9.10;99.90;;;;;;4971460;28;20712;-75
2024/01/24 11:24:40;;;;;;;21.40;4.30;;;9.20;99.90;;;;;;4966340;28;20046;-75
2024/01/24 11:27:32;;;;;;;16.35;4.07;;;9.20;99.90;;;;;;4981159;28;20493;-76
2024/01/24 11:30:06;;;;;;;5.80;2.95;;;9.20;99.90;;;;;;4965253;28;20043;-75
2024/01/24 11:32:44;;;;;;;18.77;5.75;;;9.20;99.90;;;;;;4966036;28;20034;-74
2024/01/24 11:35:36;;;;;;;8.07;2.85;;;9.30;99.90;;;;;;4965385;28;20599;-74
2024/01/24 11:38:16;;;;;;;5.75;2.72;;;9.30;99.90;;;;;;4990307;28;20046;-75
2024/01/24 11:40:47;;;;;;;6.32;2.25;;;9.30;99.90;;;;;;4980112;28;20043;-78
2024/01/24 11:43:27;;;;;;;8.90;3.83;;;9.30;99.90;;;;;;4981534;28;20439;-76
2024/01/24 11:46:02;;;;;;;17.48;2.90;;;9.40;99.90;;;;;;4987359;28;20361;-76
2024/01/24 11:48:29;;;;;;;11.07;2.90;;;9.40;99.90;;;;;;4970938;28;20550;-76
2024/01/24 11:51:01;;;;;;;11.57;3.92;;;9.40;99.90;;;;;;4982324;28;20046;-76
2024/01/24 11:53:28;;;;;;;6.40;2.63;;;9.40;99.90;;;;;;4981883;28;20046;-77
2024/01/24 11:55:59;;;;;;;8.35;4.10;;;9.30;99.90;;;;;;4981465;28;20030;-76
2024/01/24 11:58:26;;;;;;;7.85;2.78;;;9.30;99.90;;;;;;4981832;28;20046;-77
2024/01/24 12:00:58;;;;;;;7.13;3.15;;;9.40;99.90;;;;;;4938086;28;20081;-77
2024/01/24 12:03:24;;;;;;;8.77;2.83;;;9.40;99.90;;;;;;4955342;28;20049;-76
2024/01/24 12:05:50;;;;;;;9.13;2.38;;;9.40;99.90;;;;;;4983206;28;20492;-76
2024/01/24 12:08:16;;;;;;;14.57;4.55;;;9.30;99.90;;;;;;4981188;28;20042;-77
2024/01/24 12:10:42;;;;;;;5.15;2.40;;;9.40;99.90;;;;;;4981174;28;20061;-76
2024/01/24 12:13:09;;;;;;;15.43;2.78;;;9.30;99.90;;;;;;4977000;28;20456;-76
2024/01/24 12:15:35;;;;;;;13.40;4.07;;;9.30;99.90;;;;;;4993023;28;20061;-74
2024/01/24 12:18:05;;;;;;;7.47;2.92;;;9.30;99.90;;;;;;4964682;28;20042;-75
2024/01/24 12:20:31;;;;;;;6.32;2.97;;;9.30;99.90;;;;;;4964950;28;20134;-75
2024/01/24 12:22:57;;;;;;;6.00;2.80;;;9.30;99.90;;;;;;4948338;28;20082;-75
2024/01/24 12:25:23;;;;;;;20.75;3.85;;;9.30;99.90;;;;;;4959399;28;20096;-75
2024/01/24 12:27:50;;;;;;;8.32;3.70;;;9.40;99.90;;;;;;4961610;28;20046;-75
2024/01/24 12:30:16;;;;;;;11.77;3.20;;;9.30;99.90;;;;;;4984381;28;20037;-75
2024/01/24 12:32:41;;;;;;;10.70;4.30;;;9.30;99.90;;;;;;4956562;28;20699;-75
2024/01/24 12:35:07;;;;;;;5.72;3.15;;;9.30;99.90;;;;;;4962692;28;20042;-74
2024/01/24 12:37:36;;;;;;;8.63;3.35;;;9.40;99.90;;;;;;4960260;28;20104;-74
2024/01/24 12:40:07;;;;;;;8.32;3.17;;;9.40;99.90;;;;;;4962631;28;20085;-76
2024/01/24 12:42:33;;;;;;;13.40;3.42;;;9.30;99.90;;;;;;4961074;28;21176;-76
2024/01/24 12:44:58;;;;;;;8.35;2.47;;;9.30;99.90;;;;;;4980764;28;20042;-73